KICT/ICT METAR and TAF weather

Enter ICAO airport designator
Station Type Date Time Source
KICT METAR 2021/08/01 17:53 UTC NOAA

KICT 011753Z 02014G19KT 4SM HZ SCT040 SCT048 28/18 A3018 RMK AO2 SLP204 T02780178 10283 20200 58002 $


Station Type Date Time Source
KICT Decoded METAR 2021/08/01 17:53 UTC NOAA

WICHITA MID-CONTINENT AIRPORT , KS, United States (KICT) 37-39N 97-26W 408M
Aug 01, 2021 - 01:53 PM EDT / 2021.08.01 1753 UTC
Wind: from the NNE (020 degrees) at 16 MPH (14 KT) gusting to 22 MPH (19 KT):0
Visibility: 4 mile(s):0
Sky conditions: partly cloudy
Weather: haze
Temperature: 82.0 F (27.8 C)
Dew Point: 64.0 F (17.8 C)
Relative Humidity: 54%
Pressure (altimeter): 30.18 in. Hg (1022 hPa)
Pressure tendency: 0.01 inches (0.2 hPa) lower than three hours ago
ob: KICT 011753Z 02014G19KT 4SM HZ SCT040 SCT048 28/18 A3018 RMK AO2 SLP204 T02780178 10283 20200 58002
cycle: 18

Station Type Date Time Source
KICT TAF 2021/08/01 18:24 UTC NOAA

TAF KICT 011722Z 0118/0218 02010KT 5SM HZ SCT030 BKN060
FM020000 04007KT 6SM HZ SKC
FM021500 05004KT P6SM SKC

Example: see airport list